sensor_id;sensor_type;location;lat;lon;timestamp;P1;durP1;ratioP1;P2;durP2;ratioP2
6336;SDS011;3201;49.962;11.618;2022-07-03T00:00:58;2.17;;;1.90;;
6336;SDS011;3201;49.962;11.618;2022-07-03T00:03:23;2.30;;;1.93;;
6336;SDS011;3201;49.962;11.618;2022-07-03T00:05:49;2.10;;;1.90;;
6336;SDS011;3201;49.962;11.618;2022-07-03T00:08:14;2.00;;;1.80;;
6336;SDS011;3201;49.962;11.618;2022-07-03T00:10:39;3.23;;;2.23;;
6336;SDS011;3201;49.962;11.618;2022-07-03T00:13:05;3.03;;;2.10;;
6336;SDS011;3201;49.962;11.618;2022-07-03T00:15:30;3.70;;;2.10;;
6336;SDS011;3201;49.962;11.618;2022-07-03T00:17:55;2.93;;;1.77;;
6336;SDS011;3201;49.962;11.618;2022-07-03T00:20:21;3.30;;;1.90;;
6336;SDS011;3201;49.962;11.618;2022-07-03T00:22:47;2.10;;;1.90;;
6336;SDS011;3201;49.962;11.618;2022-07-03T00:25:13;2.10;;;1.90;;
6336;SDS011;3201;49.962;11.618;2022-07-03T00:27:39;2.23;;;2.03;;
6336;SDS011;3201;49.962;11.618;2022-07-03T00:30:05;8.67;;;2.43;;
6336;SDS011;3201;49.962;11.618;2022-07-03T00:32:33;2.30;;;2.10;;
6336;SDS011;3201;49.962;11.618;2022-07-03T00:34:58;2.43;;;1.73;;
6336;SDS011;3201;49.962;11.618;2022-07-03T00:37:24;4.17;;;2.10;;
6336;SDS011;3201;49.962;11.618;2022-07-03T00:39:49;2.40;;;2.20;;
6336;SDS011;3201;49.962;11.618;2022-07-03T00:42:15;3.03;;;2.00;;
6336;SDS011;3201;49.962;11.618;2022-07-03T00:44:49;2.63;;;2.43;;
6336;SDS011;3201;49.962;11.618;2022-07-03T00:47:17;3.37;;;2.13;;
6336;SDS011;3201;49.962;11.618;2022-07-03T00:49:44;2.23;;;1.70;;
6336;SDS011;3201;49.962;11.618;2022-07-03T00:52:11;2.13;;;1.90;;
6336;SDS011;3201;49.962;11.618;2022-07-03T00:54:38;3.83;;;2.20;;
6336;SDS011;3201;49.962;11.618;2022-07-03T00:57:07;3.00;;;2.30;;
6336;SDS011;3201;49.962;11.618;2022-07-03T00:59:38;4.60;;;2.17;;
6336;SDS011;3201;49.962;11.618;2022-07-03T01:02:04;3.13;;;2.10;;
6336;SDS011;3201;49.962;11.618;2022-07-03T01:07:07;3.10;;;2.00;;
6336;SDS011;3201;49.962;11.618;2022-07-03T01:11:38;3.20;;;1.93;;
6336;SDS011;3201;49.962;11.618;2022-07-03T01:12:27;4.93;;;2.40;;
6336;SDS011;3201;49.962;11.618;2022-07-03T01:16:06;2.10;;;1.97;;
6336;SDS011;3201;49.962;11.618;2022-07-03T01:17:58;4.13;;;2.17;;
6336;SDS011;3201;49.962;11.618;2022-07-03T01:20:38;2.73;;;2.23;;
6336;SDS011;3201;49.962;11.618;2022-07-03T01:23:06;2.73;;;2.53;;
6336;SDS011;3201;49.962;11.618;2022-07-03T01:25:45;3.00;;;2.70;;
6336;SDS011;3201;49.962;11.618;2022-07-03T01:28:13;2.80;;;2.23;;
6336;SDS011;3201;49.962;11.618;2022-07-03T01:30:43;4.33;;;2.23;;
6336;SDS011;3201;49.962;11.618;2022-07-03T01:33:14;3.30;;;2.70;;
6336;SDS011;3201;49.962;11.618;2022-07-03T01:35:42;2.70;;;2.50;;
6336;SDS011;3201;49.962;11.618;2022-07-03T01:38:13;3.07;;;2.00;;
6336;SDS011;3201;49.962;11.618;2022-07-03T01:40:40;5.43;;;2.27;;
6336;SDS011;3201;49.962;11.618;2022-07-03T01:43:07;4.13;;;2.40;;
6336;SDS011;3201;49.962;11.618;2022-07-03T01:45:36;1.90;;;1.80;;
6336;SDS011;3201;49.962;11.618;2022-07-03T01:48:04;3.00;;;2.40;;
6336;SDS011;3201;49.962;11.618;2022-07-03T01:50:30;2.70;;;2.30;;
6336;SDS011;3201;49.962;11.618;2022-07-03T01:52:57;3.47;;;2.57;;
6336;SDS011;3201;49.962;11.618;2022-07-03T01:55:26;2.20;;;2.00;;
6336;SDS011;3201;49.962;11.618;2022-07-03T01:57:55;2.23;;;2.03;;
6336;SDS011;3201;49.962;11.618;2022-07-03T02:00:21;2.30;;;2.10;;
6336;SDS011;3201;49.962;11.618;2022-07-03T02:02:58;4.50;;;2.50;;
6336;SDS011;3201;49.962;11.618;2022-07-03T02:05:27;2.77;;;2.43;;
6336;SDS011;3201;49.962;11.618;2022-07-03T02:09:11;2.97;;;2.67;;
6336;SDS011;3201;49.962;11.618;2022-07-03T02:11:08;2.53;;;2.33;;
6336;SDS011;3201;49.962;11.618;2022-07-03T02:13:38;2.97;;;2.57;;
6336;SDS011;3201;49.962;11.618;2022-07-03T02:16:08;4.20;;;2.60;;
6336;SDS011;3201;49.962;11.618;2022-07-03T02:18:37;6.07;;;2.70;;
6336;SDS011;3201;49.962;11.618;2022-07-03T02:21:05;2.60;;;2.40;;
6336;SDS011;3201;49.962;11.618;2022-07-03T02:23:36;3.27;;;2.80;;
6336;SDS011;3201;49.962;11.618;2022-07-03T02:26:08;3.40;;;2.77;;
6336;SDS011;3201;49.962;11.618;2022-07-03T02:28:44;3.50;;;2.30;;
6336;SDS011;3201;49.962;11.618;2022-07-03T02:31:16;2.43;;;1.97;;
6336;SDS011;3201;49.962;11.618;2022-07-03T02:33:41;2.97;;;2.70;;
6336;SDS011;3201;49.962;11.618;2022-07-03T02:36:10;2.67;;;2.47;;
6336;SDS011;3201;49.962;11.618;2022-07-03T02:38:36;2.60;;;2.30;;
6336;SDS011;3201;49.962;11.618;2022-07-03T02:46:24;4.60;;;2.27;;
6336;SDS011;3201;49.962;11.618;2022-07-03T02:49:33;1.90;;;1.80;;
6336;SDS011;3201;49.962;11.618;2022-07-03T02:54:52;2.30;;;2.10;;
6336;SDS011;3201;49.962;11.618;2022-07-03T02:57:18;2.73;;;2.53;;
6336;SDS011;3201;49.962;11.618;2022-07-03T03:00:16;3.70;;;2.37;;
6336;SDS011;3201;49.962;11.618;2022-07-03T03:05:16;2.30;;;2.10;;
6336;SDS011;3201;49.962;11.618;2022-07-03T03:08:48;7.83;;;2.60;;
6336;SDS011;3201;49.962;11.618;2022-07-03T03:10:37;3.37;;;3.07;;
6336;SDS011;3201;49.962;11.618;2022-07-03T03:13:04;4.43;;;2.40;;
6336;SDS011;3201;49.962;11.618;2022-07-03T03:15:31;4.23;;;2.37;;
6336;SDS011;3201;49.962;11.618;2022-07-03T03:18:00;3.23;;;2.93;;
6336;SDS011;3201;49.962;11.618;2022-07-03T03:20:29;3.10;;;2.80;;
6336;SDS011;3201;49.962;11.618;2022-07-03T03:25:25;2.43;;;2.23;;
6336;SDS011;3201;49.962;11.618;2022-07-03T03:27:50;3.07;;;2.83;;
6336;SDS011;3201;49.962;11.618;2022-07-03T03:30:17;4.90;;;2.77;;
6336;SDS011;3201;49.962;11.618;2022-07-03T03:32:42;2.47;;;2.27;;
6336;SDS011;3201;49.962;11.618;2022-07-03T03:35:07;2.73;;;2.53;;
6336;SDS011;3201;49.962;11.618;2022-07-03T03:37:33;3.03;;;2.73;;
6336;SDS011;3201;49.962;11.618;2022-07-03T03:39:59;4.80;;;3.07;;
6336;SDS011;3201;49.962;11.618;2022-07-03T03:42:24;2.73;;;2.53;;
6336;SDS011;3201;49.962;11.618;2022-07-03T03:44:49;3.30;;;2.73;;
6336;SDS011;3201;49.962;11.618;2022-07-03T03:47:15;2.70;;;2.50;;
6336;SDS011;3201;49.962;11.618;2022-07-03T03:49:41;3.40;;;2.40;;
6336;SDS011;3201;49.962;11.618;2022-07-03T03:52:06;4.77;;;2.83;;
6336;SDS011;3201;49.962;11.618;2022-07-03T03:54:32;3.17;;;2.57;;
6336;SDS011;3201;49.962;11.618;2022-07-03T03:56:57;2.60;;;2.40;;
6336;SDS011;3201;49.962;11.618;2022-07-03T03:59:22;2.93;;;2.70;;
6336;SDS011;3201;49.962;11.618;2022-07-03T04:01:48;2.47;;;2.27;;
6336;SDS011;3201;49.962;11.618;2022-07-03T04:04:13;3.07;;;2.50;;
6336;SDS011;3201;49.962;11.618;2022-07-03T04:06:42;3.90;;;2.70;;
6336;SDS011;3201;49.962;11.618;2022-07-03T04:09:08;4.70;;;2.53;;
6336;SDS011;3201;49.962;11.618;2022-07-03T04:11:34;3.20;;;2.90;;
6336;SDS011;3201;49.962;11.618;2022-07-03T04:13:59;2.43;;;2.20;;
6336;SDS011;3201;49.962;11.618;2022-07-03T04:16:24;3.27;;;2.63;;
6336;SDS011;3201;49.962;11.618;2022-07-03T04:18:50;3.07;;;2.60;;
6336;SDS011;3201;49.962;11.618;2022-07-03T04:21:15;4.03;;;2.63;;
6336;SDS011;3201;49.962;11.618;2022-07-03T04:23:40;2.50;;;2.30;;
6336;SDS011;3201;49.962;11.618;2022-07-03T04:26:06;5.63;;;2.90;;
6336;SDS011;3201;49.962;11.618;2022-07-03T04:28:31;2.73;;;2.53;;
6336;SDS011;3201;49.962;11.618;2022-07-03T04:30:57;3.53;;;2.93;;
6336;SDS011;3201;49.962;11.618;2022-07-03T04:33:22;3.07;;;2.77;;
6336;SDS011;3201;49.962;11.618;2022-07-03T04:35:48;2.90;;;2.70;;
6336;SDS011;3201;49.962;11.618;2022-07-03T04:38:13;3.03;;;2.83;;
6336;SDS011;3201;49.962;11.618;2022-07-03T04:40:38;2.77;;;2.57;;
6336;SDS011;3201;49.962;11.618;2022-07-03T04:43:04;2.63;;;2.43;;
6336;SDS011;3201;49.962;11.618;2022-07-03T04:45:29;3.03;;;2.73;;
6336;SDS011;3201;49.962;11.618;2022-07-03T04:47:54;4.70;;;2.70;;
6336;SDS011;3201;49.962;11.618;2022-07-03T04:50:20;3.17;;;2.87;;
6336;SDS011;3201;49.962;11.618;2022-07-03T04:52:45;3.20;;;2.90;;
6336;SDS011;3201;49.962;11.618;2022-07-03T04:55:10;3.10;;;2.80;;
6336;SDS011;3201;49.962;11.618;2022-07-03T04:57:37;3.00;;;2.70;;
6336;SDS011;3201;49.962;11.618;2022-07-03T05:00:03;4.90;;;3.10;;
6336;SDS011;3201;49.962;11.618;2022-07-03T05:02:29;4.60;;;2.73;;
6336;SDS011;3201;49.962;11.618;2022-07-03T05:04:54;2.93;;;2.63;;
6336;SDS011;3201;49.962;11.618;2022-07-03T05:07:20;3.43;;;3.13;;
6336;SDS011;3201;49.962;11.618;2022-07-03T05:09:45;4.10;;;2.50;;
6336;SDS011;3201;49.962;11.618;2022-07-03T05:12:10;2.63;;;2.40;;
6336;SDS011;3201;49.962;11.618;2022-07-03T05:14:36;3.17;;;2.97;;
6336;SDS011;3201;49.962;11.618;2022-07-03T05:17:01;3.33;;;3.03;;
6336;SDS011;3201;49.962;11.618;2022-07-03T05:19:26;3.20;;;2.80;;
6336;SDS011;3201;49.962;11.618;2022-07-03T05:21:52;4.10;;;3.30;;
6336;SDS011;3201;49.962;11.618;2022-07-03T05:24:17;5.43;;;3.10;;
6336;SDS011;3201;49.962;11.618;2022-07-03T05:26:42;3.87;;;2.43;;
6336;SDS011;3201;49.962;11.618;2022-07-03T05:29:08;6.80;;;3.33;;
6336;SDS011;3201;49.962;11.618;2022-07-03T05:31:33;3.00;;;2.70;;
6336;SDS011;3201;49.962;11.618;2022-07-03T05:33:58;4.23;;;2.97;;
6336;SDS011;3201;49.962;11.618;2022-07-03T05:36:24;3.83;;;2.77;;
6336;SDS011;3201;49.962;11.618;2022-07-03T05:38:49;3.33;;;2.83;;
6336;SDS011;3201;49.962;11.618;2022-07-03T05:41:34;2.83;;;2.60;;
6336;SDS011;3201;49.962;11.618;2022-07-03T05:44:00;2.67;;;2.33;;
6336;SDS011;3201;49.962;11.618;2022-07-03T05:46:25;5.23;;;2.33;;
6336;SDS011;3201;49.962;11.618;2022-07-03T05:48:51;2.77;;;2.47;;
6336;SDS011;3201;49.962;11.618;2022-07-03T05:51:17;3.10;;;2.50;;
6336;SDS011;3201;49.962;11.618;2022-07-03T05:53:42;4.47;;;2.30;;
6336;SDS011;3201;49.962;11.618;2022-07-03T05:56:07;5.33;;;2.33;;
6336;SDS011;3201;49.962;11.618;2022-07-03T05:58:33;3.00;;;2.70;;
6336;SDS011;3201;49.962;11.618;2022-07-03T06:00:58;3.20;;;2.40;;
6336;SDS011;3201;49.962;11.618;2022-07-03T06:03:23;2.73;;;2.00;;
6336;SDS011;3201;49.962;11.618;2022-07-03T06:05:49;3.70;;;2.60;;
6336;SDS011;3201;49.962;11.618;2022-07-03T06:08:14;2.60;;;2.40;;
6336;SDS011;3201;49.962;11.618;2022-07-03T06:10:39;6.40;;;2.40;;
6336;SDS011;3201;49.962;11.618;2022-07-03T06:13:05;3.80;;;2.47;;
6336;SDS011;3201;49.962;11.618;2022-07-03T06:15:30;3.67;;;3.07;;
6336;SDS011;3201;49.962;11.618;2022-07-03T06:17:56;2.90;;;2.30;;
6336;SDS011;3201;49.962;11.618;2022-07-03T06:20:21;2.70;;;2.13;;
6336;SDS011;3201;49.962;11.618;2022-07-03T06:22:46;3.30;;;2.50;;
6336;SDS011;3201;49.962;11.618;2022-07-03T06:25:12;2.63;;;2.20;;
6336;SDS011;3201;49.962;11.618;2022-07-03T06:27:37;2.60;;;2.30;;
6336;SDS011;3201;49.962;11.618;2022-07-03T06:30:03;3.70;;;2.43;;
6336;SDS011;3201;49.962;11.618;2022-07-03T06:32:29;3.80;;;2.60;;
6336;SDS011;3201;49.962;11.618;2022-07-03T06:34:54;7.53;;;2.40;;
6336;SDS011;3201;49.962;11.618;2022-07-03T06:37:20;3.80;;;2.57;;
6336;SDS011;3201;49.962;11.618;2022-07-03T06:39:46;2.80;;;2.53;;
6336;SDS011;3201;49.962;11.618;2022-07-03T06:42:11;2.97;;;2.27;;
6336;SDS011;3201;49.962;11.618;2022-07-03T06:44:36;2.43;;;2.17;;
6336;SDS011;3201;49.962;11.618;2022-07-03T06:47:02;2.80;;;2.57;;
6336;SDS011;3201;49.962;11.618;2022-07-03T06:49:28;4.43;;;2.40;;
6336;SDS011;3201;49.962;11.618;2022-07-03T06:51:54;2.17;;;1.97;;
6336;SDS011;3201;49.962;11.618;2022-07-03T06:54:19;3.00;;;2.40;;
6336;SDS011;3201;49.962;11.618;2022-07-03T06:56:45;1.90;;;1.80;;
6336;SDS011;3201;49.962;11.618;2022-07-03T06:59:10;2.43;;;2.23;;
6336;SDS011;3201;49.962;11.618;2022-07-03T07:01:35;2.70;;;2.50;;
6336;SDS011;3201;49.962;11.618;2022-07-03T07:04:01;3.07;;;2.20;;
6336;SDS011;3201;49.962;11.618;2022-07-03T07:06:27;2.37;;;2.17;;
6336;SDS011;3201;49.962;11.618;2022-07-03T07:08:53;2.60;;;2.40;;
6336;SDS011;3201;49.962;11.618;2022-07-03T07:11:18;3.07;;;2.30;;
6336;SDS011;3201;49.962;11.618;2022-07-03T07:13:43;3.83;;;2.20;;
6336;SDS011;3201;49.962;11.618;2022-07-03T07:16:09;1.87;;;1.70;;
6336;SDS011;3201;49.962;11.618;2022-07-03T07:18:34;1.87;;;1.60;;
6336;SDS011;3201;49.962;11.618;2022-07-03T07:20:59;2.70;;;2.50;;
6336;SDS011;3201;49.962;11.618;2022-07-03T07:23:25;2.17;;;1.97;;
6336;SDS011;3201;49.962;11.618;2022-07-03T07:25:50;3.63;;;2.10;;
6336;SDS011;3201;49.962;11.618;2022-07-03T07:28:16;3.13;;;2.20;;
6336;SDS011;3201;49.962;11.618;2022-07-03T07:30:41;2.40;;;2.20;;
6336;SDS011;3201;49.962;11.618;2022-07-03T07:33:07;2.87;;;2.10;;
6336;SDS011;3201;49.962;11.618;2022-07-03T07:35:33;3.33;;;2.13;;
6336;SDS011;3201;49.962;11.618;2022-07-03T07:37:58;3.43;;;2.30;;
6336;SDS011;3201;49.962;11.618;2022-07-03T07:40:24;2.70;;;2.50;;
6336;SDS011;3201;49.962;11.618;2022-07-03T07:42:49;2.30;;;2.00;;
6336;SDS011;3201;49.962;11.618;2022-07-03T07:45:15;5.60;;;2.40;;
6336;SDS011;3201;49.962;11.618;2022-07-03T07:47:40;5.40;;;2.10;;
6336;SDS011;3201;49.962;11.618;2022-07-03T07:50:05;3.00;;;2.63;;
6336;SDS011;3201;49.962;11.618;2022-07-03T07:52:31;3.67;;;2.60;;
6336;SDS011;3201;49.962;11.618;2022-07-03T07:54:57;2.57;;;1.93;;
6336;SDS011;3201;49.962;11.618;2022-07-03T07:57:22;2.77;;;1.77;;
6336;SDS011;3201;49.962;11.618;2022-07-03T07:59:47;2.50;;;2.10;;
6336;SDS011;3201;49.962;11.618;2022-07-03T08:02:13;2.23;;;1.93;;
6336;SDS011;3201;49.962;11.618;2022-07-03T08:04:58;3.03;;;2.47;;
6336;SDS011;3201;49.962;11.618;2022-07-03T08:07:43;5.23;;;2.30;;
6336;SDS011;3201;49.962;11.618;2022-07-03T08:10:09;1.77;;;1.63;;
6336;SDS011;3201;49.962;11.618;2022-07-03T08:12:34;3.50;;;1.90;;
6336;SDS011;3201;49.962;11.618;2022-07-03T08:14:59;3.67;;;2.10;;
6336;SDS011;3201;49.962;11.618;2022-07-03T08:17:25;2.83;;;2.53;;
6336;SDS011;3201;49.962;11.618;2022-07-03T08:19:50;4.37;;;2.10;;
6336;SDS011;3201;49.962;11.618;2022-07-03T08:22:15;3.67;;;2.40;;
6336;SDS011;3201;49.962;11.618;2022-07-03T08:24:41;2.60;;;2.40;;
6336;SDS011;3201;49.962;11.618;2022-07-03T08:27:06;2.80;;;1.80;;
6336;SDS011;3201;49.962;11.618;2022-07-03T08:29:31;2.80;;;2.13;;
6336;SDS011;3201;49.962;11.618;2022-07-03T08:31:57;2.13;;;1.80;;
6336;SDS011;3201;49.962;11.618;2022-07-03T08:34:22;2.37;;;2.17;;
6336;SDS011;3201;49.962;11.618;2022-07-03T08:36:48;4.73;;;2.27;;
6336;SDS011;3201;49.962;11.618;2022-07-03T08:39:14;4.70;;;2.50;;
6336;SDS011;3201;49.962;11.618;2022-07-03T08:41:40;2.97;;;2.20;;
6336;SDS011;3201;49.962;11.618;2022-07-03T08:44:05;2.00;;;1.83;;
6336;SDS011;3201;49.962;11.618;2022-07-03T08:46:32;3.90;;;2.10;;
6336;SDS011;3201;49.962;11.618;2022-07-03T08:48:59;4.20;;;2.20;;
6336;SDS011;3201;49.962;11.618;2022-07-03T08:51:26;3.10;;;2.00;;
6336;SDS011;3201;49.962;11.618;2022-07-03T08:53:52;3.37;;;2.13;;
6336;SDS011;3201;49.962;11.618;2022-07-03T08:56:20;2.03;;;1.83;;
6336;SDS011;3201;49.962;11.618;2022-07-03T08:58:45;3.77;;;2.23;;
6336;SDS011;3201;49.962;11.618;2022-07-03T09:01:13;5.10;;;2.33;;
6336;SDS011;3201;49.962;11.618;2022-07-03T09:03:40;2.67;;;2.07;;
6336;SDS011;3201;49.962;11.618;2022-07-03T09:06:07;2.10;;;1.90;;
6336;SDS011;3201;49.962;11.618;2022-07-03T09:08:32;1.60;;;1.50;;
6336;SDS011;3201;49.962;11.618;2022-07-03T09:10:59;4.00;;;1.63;;
6336;SDS011;3201;49.962;11.618;2022-07-03T09:13:24;2.10;;;1.90;;
6336;SDS011;3201;49.962;11.618;2022-07-03T09:15:49;5.60;;;1.53;;
6336;SDS011;3201;49.962;11.618;2022-07-03T09:18:15;3.53;;;1.83;;
6336;SDS011;3201;49.962;11.618;2022-07-03T09:20:40;6.87;;;1.50;;
6336;SDS011;3201;49.962;11.618;2022-07-03T09:23:22;4.50;;;1.70;;
6336;SDS011;3201;49.962;11.618;2022-07-03T09:28:23;2.13;;;1.70;;
6336;SDS011;3201;49.962;11.618;2022-07-03T09:30:57;4.03;;;2.00;;
6336;SDS011;3201;49.962;11.618;2022-07-03T09:33:23;2.50;;;2.23;;
6336;SDS011;3201;49.962;11.618;2022-07-03T09:35:52;2.27;;;1.53;;
6336;SDS011;3201;49.962;11.618;2022-07-03T09:38:18;1.43;;;1.30;;
6336;SDS011;3201;49.962;11.618;2022-07-03T09:40:47;1.67;;;1.57;;
6336;SDS011;3201;49.962;11.618;2022-07-03T09:43:14;1.47;;;1.33;;
6336;SDS011;3201;49.962;11.618;2022-07-03T09:45:48;6.70;;;1.00;;
6336;SDS011;3201;49.962;11.618;2022-07-03T09:56:12;1.70;;;1.00;;
6336;SDS011;3201;49.962;11.618;2022-07-03T09:58:38;0.97;;;0.90;;
6336;SDS011;3201;49.962;11.618;2022-07-03T10:01:19;0.87;;;0.80;;
6336;SDS011;3201;49.962;11.618;2022-07-03T10:03:46;0.80;;;0.73;;
6336;SDS011;3201;49.962;11.618;2022-07-03T10:06:13;2.70;;;0.90;;
6336;SDS011;3201;49.962;11.618;2022-07-03T10:08:38;1.13;;;0.90;;
6336;SDS011;3201;49.962;11.618;2022-07-03T10:11:04;1.10;;;1.00;;
6336;SDS011;3201;49.962;11.618;2022-07-03T10:13:29;1.10;;;0.93;;
6336;SDS011;3201;49.962;11.618;2022-07-03T10:15:55;0.80;;;0.80;;
6336;SDS011;3201;49.962;11.618;2022-07-03T10:18:22;0.73;;;0.60;;
6336;SDS011;3201;49.962;11.618;2022-07-03T10:20:49;0.70;;;0.60;;
6336;SDS011;3201;49.962;11.618;2022-07-03T10:23:15;2.10;;;0.90;;
6336;SDS011;3201;49.962;11.618;2022-07-03T10:25:41;1.73;;;1.40;;
6336;SDS011;3201;49.962;11.618;2022-07-03T10:28:07;1.27;;;0.70;;
6336;SDS011;3201;49.962;11.618;2022-07-03T10:30:34;0.67;;;0.67;;
6336;SDS011;3201;49.962;11.618;2022-07-03T10:32:59;1.10;;;0.80;;
6336;SDS011;3201;49.962;11.618;2022-07-03T10:35:25;3.27;;;0.83;;
6336;SDS011;3201;49.962;11.618;2022-07-03T10:37:57;1.73;;;0.80;;
6336;SDS011;3201;49.962;11.618;2022-07-03T10:43:21;0.70;;;0.70;;
6336;SDS011;3201;49.962;11.618;2022-07-03T10:46:11;2.67;;;1.00;;
6336;SDS011;3201;49.962;11.618;2022-07-03T10:49:10;1.17;;;1.00;;
6336;SDS011;3201;49.962;11.618;2022-07-03T10:51:26;3.93;;;1.00;;
6336;SDS011;3201;49.962;11.618;2022-07-03T10:54:51;2.57;;;1.30;;
6336;SDS011;3201;49.962;11.618;2022-07-03T11:07:29;2.93;;;1.20;;
6336;SDS011;3201;49.962;11.618;2022-07-03T11:13:48;1.90;;;1.03;;
6336;SDS011;3201;49.962;11.618;2022-07-03T11:20:33;0.87;;;0.70;;
6336;SDS011;3201;49.962;11.618;2022-07-03T11:23:06;1.53;;;0.87;;
6336;SDS011;3201;49.962;11.618;2022-07-03T11:25:39;0.87;;;0.70;;
6336;SDS011;3201;49.962;11.618;2022-07-03T11:28:05;4.30;;;1.00;;
6336;SDS011;3201;49.962;11.618;2022-07-03T11:30:31;1.37;;;0.90;;
6336;SDS011;3201;49.962;11.618;2022-07-03T11:32:57;1.40;;;0.80;;
6336;SDS011;3201;49.962;11.618;2022-07-03T11:35:54;2.67;;;1.00;;
6336;SDS011;3201;49.962;11.618;2022-07-03T11:38:20;0.80;;;0.70;;
6336;SDS011;3201;49.962;11.618;2022-07-03T11:40:48;1.27;;;0.70;;
6336;SDS011;3201;49.962;11.618;2022-07-03T11:43:16;6.73;;;0.93;;
6336;SDS011;3201;49.962;11.618;2022-07-03T11:45:41;1.07;;;0.83;;
6336;SDS011;3201;49.962;11.618;2022-07-03T11:48:08;1.30;;;0.90;;
6336;SDS011;3201;49.962;11.618;2022-07-03T11:50:37;2.83;;;0.90;;
6336;SDS011;3201;49.962;11.618;2022-07-03T11:53:36;1.00;;;0.90;;
6336;SDS011;3201;49.962;11.618;2022-07-03T11:56:00;0.80;;;0.77;;
6336;SDS011;3201;49.962;11.618;2022-07-03T11:59:00;4.60;;;1.03;;
6336;SDS011;3201;49.962;11.618;2022-07-03T12:03:50;0.80;;;0.80;;
6336;SDS011;3201;49.962;11.618;2022-07-03T12:06:17;1.23;;;1.00;;
6336;SDS011;3201;49.962;11.618;2022-07-03T12:08:43;1.40;;;1.00;;
6336;SDS011;3201;49.962;11.618;2022-07-03T12:11:12;1.20;;;1.07;;
6336;SDS011;3201;49.962;11.618;2022-07-03T12:13:38;3.23;;;0.73;;
6336;SDS011;3201;49.962;11.618;2022-07-03T12:21:25;1.23;;;1.13;;
6336;SDS011;3201;49.962;11.618;2022-07-03T12:24:00;0.80;;;0.70;;
6336;SDS011;3201;49.962;11.618;2022-07-03T12:26:26;2.50;;;0.80;;
6336;SDS011;3201;49.962;11.618;2022-07-03T12:28:54;1.60;;;0.97;;
6336;SDS011;3201;49.962;11.618;2022-07-03T12:31:21;1.27;;;0.90;;
6336;SDS011;3201;49.962;11.618;2022-07-03T12:33:47;0.77;;;0.77;;
6336;SDS011;3201;49.962;11.618;2022-07-03T12:36:12;1.47;;;1.00;;
6336;SDS011;3201;49.962;11.618;2022-07-03T12:38:38;2.10;;;0.80;;
6336;SDS011;3201;49.962;11.618;2022-07-03T12:41:06;2.73;;;0.90;;
6336;SDS011;3201;49.962;11.618;2022-07-03T12:43:40;0.80;;;0.80;;
6336;SDS011;3201;49.962;11.618;2022-07-03T12:46:15;1.80;;;1.20;;
6336;SDS011;3201;49.962;11.618;2022-07-03T12:48:46;5.33;;;0.90;;
6336;SDS011;3201;49.962;11.618;2022-07-03T12:51:12;1.40;;;1.00;;
6336;SDS011;3201;49.962;11.618;2022-07-03T12:53:38;0.90;;;0.90;;
6336;SDS011;3201;49.962;11.618;2022-07-03T12:56:04;2.00;;;0.90;;
6336;SDS011;3201;49.962;11.618;2022-07-03T12:58:30;1.40;;;0.90;;
6336;SDS011;3201;49.962;11.618;2022-07-03T13:01:34;4.93;;;0.77;;
6336;SDS011;3201;49.962;11.618;2022-07-03T13:04:01;1.17;;;0.70;;
6336;SDS011;3201;49.962;11.618;2022-07-03T13:06:27;1.00;;;0.60;;
6336;SDS011;3201;49.962;11.618;2022-07-03T13:08:54;0.80;;;0.80;;
6336;SDS011;3201;49.962;11.618;2022-07-03T13:11:27;1.03;;;0.87;;
6336;SDS011;3201;49.962;11.618;2022-07-03T13:14:03;0.70;;;0.70;;
6336;SDS011;3201;49.962;11.618;2022-07-03T13:16:35;0.93;;;0.80;;
6336;SDS011;3201;49.962;11.618;2022-07-03T13:19:04;0.87;;;0.80;;
6336;SDS011;3201;49.962;11.618;2022-07-03T13:21:30;0.90;;;0.73;;
6336;SDS011;3201;49.962;11.618;2022-07-03T13:23:55;1.53;;;0.87;;
6336;SDS011;3201;49.962;11.618;2022-07-03T13:26:21;2.40;;;1.20;;
6336;SDS011;3201;49.962;11.618;2022-07-03T13:28:46;4.37;;;0.80;;
6336;SDS011;3201;49.962;11.618;2022-07-03T13:31:12;1.00;;;0.77;;
6336;SDS011;3201;49.962;11.618;2022-07-03T13:33:37;2.40;;;0.90;;
6336;SDS011;3201;49.962;11.618;2022-07-03T13:36:02;1.47;;;0.80;;
6336;SDS011;3201;49.962;11.618;2022-07-03T13:38:28;2.10;;;0.90;;
6336;SDS011;3201;49.962;11.618;2022-07-03T13:40:53;2.30;;;0.70;;
6336;SDS011;3201;49.962;11.618;2022-07-03T13:43:18;2.57;;;0.80;;
6336;SDS011;3201;49.962;11.618;2022-07-03T13:45:44;0.77;;;0.77;;
6336;SDS011;3201;49.962;11.618;2022-07-03T13:48:09;2.77;;;0.90;;
6336;SDS011;3201;49.962;11.618;2022-07-03T13:50:35;1.67;;;0.97;;
6336;SDS011;3201;49.962;11.618;2022-07-03T13:53:00;0.83;;;0.70;;
6336;SDS011;3201;49.962;11.618;2022-07-03T13:55:25;1.00;;;0.90;;
6336;SDS011;3201;49.962;11.618;2022-07-03T13:57:51;0.80;;;0.70;;
6336;SDS011;3201;49.962;11.618;2022-07-03T14:00:17;1.37;;;1.10;;
6336;SDS011;3201;49.962;11.618;2022-07-03T14:02:43;1.57;;;0.90;;
6336;SDS011;3201;49.962;11.618;2022-07-03T14:05:08;0.80;;;0.77;;
6336;SDS011;3201;49.962;11.618;2022-07-03T14:07:34;2.30;;;0.80;;
6336;SDS011;3201;49.962;11.618;2022-07-03T14:09:59;1.00;;;0.90;;
6336;SDS011;3201;49.962;11.618;2022-07-03T14:12:25;1.13;;;0.90;;
6336;SDS011;3201;49.962;11.618;2022-07-03T14:14:50;1.43;;;0.93;;
6336;SDS011;3201;49.962;11.618;2022-07-03T14:17:15;0.80;;;0.80;;
6336;SDS011;3201;49.962;11.618;2022-07-03T14:19:40;3.67;;;0.83;;
6336;SDS011;3201;49.962;11.618;2022-07-03T14:22:06;2.30;;;0.83;;
6336;SDS011;3201;49.962;11.618;2022-07-03T14:24:31;1.57;;;0.80;;
6336;SDS011;3201;49.962;11.618;2022-07-03T14:26:57;0.90;;;0.70;;
6336;SDS011;3201;49.962;11.618;2022-07-03T14:29:42;1.13;;;0.73;;
6336;SDS011;3201;49.962;11.618;2022-07-03T14:32:27;0.60;;;0.60;;
6336;SDS011;3201;49.962;11.618;2022-07-03T14:34:54;1.27;;;0.70;;
6336;SDS011;3201;49.962;11.618;2022-07-03T14:37:20;2.77;;;0.83;;
6336;SDS011;3201;49.962;11.618;2022-07-03T14:39:46;2.10;;;0.90;;
6336;SDS011;3201;49.962;11.618;2022-07-03T14:42:11;1.03;;;0.77;;
6336;SDS011;3201;49.962;11.618;2022-07-03T14:44:37;0.63;;;0.57;;
6336;SDS011;3201;49.962;11.618;2022-07-03T14:47:02;1.30;;;0.87;;
6336;SDS011;3201;49.962;11.618;2022-07-03T14:49:28;2.30;;;0.80;;
6336;SDS011;3201;49.962;11.618;2022-07-03T14:51:53;0.70;;;0.67;;
6336;SDS011;3201;49.962;11.618;2022-07-03T14:54:19;0.90;;;0.60;;
6336;SDS011;3201;49.962;11.618;2022-07-03T14:56:47;2.10;;;0.70;;
6336;SDS011;3201;49.962;11.618;2022-07-03T14:59:26;2.40;;;1.00;;
6336;SDS011;3201;49.962;11.618;2022-07-03T15:02:00;0.73;;;0.70;;
6336;SDS011;3201;49.962;11.618;2022-07-03T15:04:32;3.40;;;0.80;;
6336;SDS011;3201;49.962;11.618;2022-07-03T15:07:06;1.30;;;0.80;;
6336;SDS011;3201;49.962;11.618;2022-07-03T15:09:32;1.47;;;0.80;;
6336;SDS011;3201;49.962;11.618;2022-07-03T15:12:02;3.60;;;0.60;;
6336;SDS011;3201;49.962;11.618;2022-07-03T15:14:49;1.10;;;0.70;;
6336;SDS011;3201;49.962;11.618;2022-07-03T15:17:17;0.70;;;0.60;;
6336;SDS011;3201;49.962;11.618;2022-07-03T15:19:43;1.13;;;0.60;;
6336;SDS011;3201;49.962;11.618;2022-07-03T15:22:09;2.10;;;0.70;;
6336;SDS011;3201;49.962;11.618;2022-07-03T15:24:37;1.60;;;0.63;;
6336;SDS011;3201;49.962;11.618;2022-07-03T15:27:04;1.60;;;0.53;;
6336;SDS011;3201;49.962;11.618;2022-07-03T15:29:30;0.60;;;0.60;;
6336;SDS011;3201;49.962;11.618;2022-07-03T15:31:55;0.80;;;0.60;;
6336;SDS011;3201;49.962;11.618;2022-07-03T15:34:26;0.70;;;0.70;;
6336;SDS011;3201;49.962;11.618;2022-07-03T15:36:53;0.90;;;0.60;;
6336;SDS011;3201;49.962;11.618;2022-07-03T15:39:27;2.00;;;0.60;;
6336;SDS011;3201;49.962;11.618;2022-07-03T15:44:47;3.83;;;0.90;;
6336;SDS011;3201;49.962;11.618;2022-07-03T15:49:47;1.90;;;0.73;;
6336;SDS011;3201;49.962;11.618;2022-07-03T15:52:16;0.80;;;0.60;;
6336;SDS011;3201;49.962;11.618;2022-07-03T15:57:25;0.90;;;0.70;;
6336;SDS011;3201;49.962;11.618;2022-07-03T15:59:58;1.13;;;0.77;;
6336;SDS011;3201;49.962;11.618;2022-07-03T16:02:26;1.33;;;0.60;;
6336;SDS011;3201;49.962;11.618;2022-07-03T16:05:03;0.60;;;0.57;;
6336;SDS011;3201;49.962;11.618;2022-07-03T16:07:33;1.30;;;0.60;;
6336;SDS011;3201;49.962;11.618;2022-07-03T16:10:00;2.50;;;0.60;;